Time;durP1;ratioP1;P1;durP2;ratioP2;P2;SDS_P1;SDS_P2;PMS_P1;PMS_P2;Temp;Humidity;BMP_temperature;BMP_pressure;BME280_temperature;BME280_humidity;BME280_pressure;Samples;Min_cycle;Max_cycle;Signal;HPM_P1;HPM_P2
2021/10/04 00:02:22;;;;;;;5.97;4.38;;;13.30;70.30;;;;;;5033273;28;20029;-50
2021/10/04 00:04:47;;;;;;;5.10;4.10;;;13.30;70.30;;;;;;5032645;28;20029;-52
2021/10/04 00:07:13;;;;;;;5.32;4.10;;;13.30;70.40;;;;;;5033154;28;20025;-52
2021/10/04 00:09:39;;;;;;;4.72;3.88;;;13.30;70.40;;;;;;5032936;28;20544;-50
2021/10/04 00:12:06;;;;;;;4.90;4.20;;;13.20;70.20;;;;;;5032928;28;20370;-52
2021/10/04 00:14:32;;;;;;;5.57;4.25;;;13.20;70.30;;;;;;5033006;28;20036;-51
2021/10/04 00:16:58;;;;;;;5.53;4.10;;;13.20;70.40;;;;;;5033397;28;20022;-50
2021/10/04 00:19:24;;;;;;;5.53;4.25;;;13.20;70.40;;;;;;5032882;28;20040;-50
2021/10/04 00:21:50;;;;;;;5.03;4.35;;;13.20;70.60;;;;;;5016629;28;20030;-51
2021/10/04 00:24:16;;;;;;;5.13;4.30;;;13.20;70.60;;;;;;5021395;28;20068;-50
2021/10/04 00:26:42;;;;;;;5.18;4.30;;;13.20;70.60;;;;;;5033075;28;20037;-50
2021/10/04 00:29:08;;;;;;;5.45;4.15;;;13.20;70.60;;;;;;5032782;28;20041;-50
2021/10/04 00:31:33;;;;;;;5.40;4.38;;;13.20;70.50;;;;;;5032784;28;20061;-50
2021/10/04 00:34:00;;;;;;;7.00;4.32;;;13.20;70.70;;;;;;5032950;28;20079;-50
2021/10/04 00:36:26;;;;;;;5.43;4.00;;;13.20;70.50;;;;;;5032383;28;20021;-50
2021/10/04 00:38:52;;;;;;;5.70;4.57;;;13.10;70.50;;;;;;5019673;28;20207;-50
2021/10/04 00:41:18;;;;;;;6.57;4.90;;;13.20;70.90;;;;;;5032515;28;20075;-50
2021/10/04 00:43:43;;;;;;;6.68;5.18;;;13.20;70.70;;;;;;5032403;28;20029;-50
2021/10/04 00:46:09;;;;;;;5.00;4.35;;;13.10;70.70;;;;;;5032913;28;20104;-54
2021/10/04 00:48:35;;;;;;;7.28;5.20;;;13.10;70.80;;;;;;5032732;28;20112;-50
2021/10/04 00:51:00;;;;;;;5.95;4.57;;;13.10;70.70;;;;;;5032589;28;20385;-50
2021/10/04 00:53:26;;;;;;;6.13;5.00;;;13.10;71.40;;;;;;5018182;28;20041;-50
2021/10/04 00:55:52;;;;;;;6.95;5.00;;;13.10;70.80;;;;;;5032579;28;20030;-50
2021/10/04 00:58:18;;;;;;;6.38;4.63;;;13.10;70.80;;;;;;5032325;28;20108;-53
2021/10/04 01:00:43;;;;;;;7.78;5.70;;;13.10;71.00;;;;;;5032112;28;20029;-52
2021/10/04 01:03:09;;;;;;;6.18;4.78;;;13.10;70.90;;;;;;5032565;28;20025;-50
2021/10/04 01:05:35;;;;;;;7.38;5.28;;;13.10;70.90;;;;;;5032510;28;20053;-50
2021/10/04 01:08:00;;;;;;;6.80;4.88;;;13.10;70.90;;;;;;5032727;28;20029;-50
2021/10/04 01:10:27;;;;;;;7.22;5.80;;;13.10;70.90;;;;;;5031762;28;20481;-50
2021/10/04 01:12:52;;;;;;;7.05;5.18;;;13.10;70.80;;;;;;5034453;28;20099;-49
2021/10/04 01:15:20;;;;;;;7.50;5.00;;;13.10;70.70;;;;;;5033837;28;20026;-50
2021/10/04 01:17:46;;;;;;;6.18;4.63;;;13.10;70.70;;;;;;5036843;28;20044;-50
2021/10/04 01:20:19;;;;;;;6.32;4.95;;;13.10;70.90;;;;;;5036432;28;20021;-50
2021/10/04 01:22:46;;;;;;;7.72;5.10;;;13.10;70.90;;;;;;5036522;28;20571;-50
2021/10/04 01:25:13;;;;;;;6.60;5.40;;;13.00;70.80;;;;;;5035887;28;20040;-50
2021/10/04 01:27:42;;;;;;;6.97;5.30;;;13.00;70.70;;;;;;5035834;28;20033;-52
2021/10/04 01:30:09;;;;;;;7.50;4.75;;;13.00;70.70;;;;;;5035310;28;20022;-51
2021/10/04 01:32:36;;;;;;;8.18;5.13;;;13.00;70.80;;;;;;5036003;28;20031;-50
2021/10/04 01:35:01;;;;;;;6.80;4.70;;;13.00;70.80;;;;;;5035816;28;20470;-52
2021/10/04 01:37:27;;;;;;;6.50;4.72;;;13.00;70.90;;;;;;5035124;28;20036;-50
2021/10/04 01:39:53;;;;;;;6.57;4.82;;;13.00;70.90;;;;;;5035497;28;20037;-50
2021/10/04 01:42:19;;;;;;;5.60;4.88;;;13.00;70.90;;;;;;5036055;28;20030;-50
2021/10/04 01:44:45;;;;;;;7.18;5.05;;;13.00;70.80;;;;;;5033828;28;20453;-50
2021/10/04 01:47:11;;;;;;;8.43;5.18;;;13.00;70.80;;;;;;5028747;28;20064;-50
2021/10/04 01:49:36;;;;;;;6.25;5.15;;;13.00;70.80;;;;;;5035702;28;20468;-50
2021/10/04 01:52:02;;;;;;;6.22;4.50;;;12.90;70.90;;;;;;5035793;28;20030;-50
2021/10/04 01:54:28;;;;;;;6.45;5.20;;;12.90;70.60;;;;;;5035680;28;20093;-50
2021/10/04 01:56:54;;;;;;;5.90;4.68;;;12.90;70.70;;;;;;5035872;28;20113;-50
2021/10/04 01:59:19;;;;;;;6.15;4.97;;;12.90;70.80;;;;;;5035836;28;20026;-50
2021/10/04 02:01:45;;;;;;;7.13;5.60;;;12.90;70.70;;;;;;5034156;28;22421;-51
2021/10/04 02:04:11;;;;;;;7.20;5.55;;;12.90;70.80;;;;;;5035495;28;20064;-50
2021/10/04 02:06:36;;;;;;;6.40;5.15;;;12.90;70.60;;;;;;5035355;28;20080;-50
2021/10/04 02:09:02;;;;;;;7.75;5.78;;;12.90;70.50;;;;;;5035421;28;20033;-50
2021/10/04 02:11:28;;;;;;;6.35;5.00;;;12.80;70.60;;;;;;5035256;28;20473;-50
2021/10/04 02:13:53;;;;;;;6.88;5.68;;;12.80;70.70;;;;;;5035566;28;20112;-50
2021/10/04 02:16:19;;;;;;;8.63;5.60;;;12.80;70.70;;;;;;5034816;28;20040;-50
2021/10/04 02:18:45;;;;;;;6.75;5.22;;;12.80;70.80;;;;;;5034563;28;20384;-50
2021/10/04 02:21:12;;;;;;;7.50;5.40;;;12.70;70.60;;;;;;5035291;28;20025;-49
2021/10/04 02:23:37;;;;;;;8.50;5.82;;;12.70;70.70;;;;;;5034615;28;20025;-50
2021/10/04 02:26:03;;;;;;;6.82;5.70;;;12.70;70.80;;;;;;5034503;28;20143;-50
2021/10/04 02:28:29;;;;;;;7.07;5.30;;;12.70;71.50;;;;;;5024699;28;20034;-52
2021/10/04 02:30:56;;;;;;;6.65;5.20;;;12.70;70.90;;;;;;5028244;28;20416;-51
2021/10/04 02:33:22;;;;;;;6.32;5.07;;;12.70;70.80;;;;;;5034398;28;20123;-50
2021/10/04 02:35:47;;;;;;;8.85;5.90;;;12.70;70.80;;;;;;5034524;28;20049;-51
2021/10/04 02:38:14;;;;;;;5.68;4.65;;;12.70;70.80;;;;;;5034017;28;20050;-50
2021/10/04 02:40:40;;;;;;;7.47;5.95;;;12.70;71.50;;;;;;5033224;28;20034;-50
2021/10/04 02:43:07;;;;;;;5.90;4.72;;;12.60;70.80;;;;;;5032759;28;20034;-51
2021/10/04 02:45:33;;;;;;;6.82;4.68;;;12.70;70.90;;;;;;5032978;28;20028;-50
2021/10/04 02:48:01;;;;;;;5.53;4.90;;;12.60;71.00;;;;;;5032870;28;20026;-50
2021/10/04 02:50:28;;;;;;;6.15;5.10;;;12.60;70.80;;;;;;5024278;28;20114;-49
2021/10/04 02:52:54;;;;;;;6.30;5.47;;;12.70;70.90;;;;;;5018703;28;20033;-50
2021/10/04 02:55:20;;;;;;;7.03;5.10;;;12.70;70.80;;;;;;5032948;28;20037;-50
2021/10/04 02:57:46;;;;;;;6.20;4.97;;;12.70;70.90;;;;;;5034886;28;20469;-50
2021/10/04 03:00:15;;;;;;;6.57;5.07;;;12.70;70.80;;;;;;5034184;28;20087;-50
2021/10/04 03:02:41;;;;;;;5.88;5.07;;;12.70;70.80;;;;;;5034068;28;20033;-50
2021/10/04 03:05:07;;;;;;;6.30;5.20;;;12.70;70.80;;;;;;5034007;28;20025;-50
2021/10/04 03:07:32;;;;;;;7.30;5.53;;;12.70;70.70;;;;;;5033423;28;20048;-50
2021/10/04 03:09:58;;;;;;;7.30;5.50;;;12.70;70.80;;;;;;5034157;28;20037;-52
2021/10/04 03:12:24;;;;;;;6.43;4.82;;;12.70;70.80;;;;;;5034276;28;20029;-53
2021/10/04 03:14:50;;;;;;;6.78;4.80;;;12.70;70.80;;;;;;5034027;28;20473;-50
2021/10/04 03:17:15;;;;;;;8.07;5.95;;;12.70;70.80;;;;;;5033925;28;20060;-52
2021/10/04 03:19:42;;;;;;;5.95;4.70;;;12.70;70.80;;;;;;5033854;28;20061;-52
2021/10/04 03:22:07;;;;;;;6.85;5.03;;;12.70;70.70;;;;;;5034177;28;20026;-50
2021/10/04 03:24:33;;;;;;;6.43;5.03;;;12.70;70.80;;;;;;5033975;28;20060;-50
2021/10/04 03:27:00;;;;;;;6.80;5.07;;;12.70;70.90;;;;;;5017312;28;20377;-50
2021/10/04 03:29:26;;;;;;;8.55;5.18;;;12.70;70.70;;;;;;5017734;28;20105;-50
2021/10/04 03:31:51;;;;;;;7.45;5.10;;;12.70;70.70;;;;;;5033784;28;20112;-50
2021/10/04 03:34:17;;;;;;;6.05;4.90;;;12.70;70.60;;;;;;5033539;28;20462;-50
2021/10/04 03:36:44;;;;;;;7.70;5.10;;;12.70;70.60;;;;;;5033456;28;20029;-50
2021/10/04 03:39:11;;;;;;;6.68;5.15;;;12.70;70.40;;;;;;5033013;28;20077;-50
2021/10/04 03:41:37;;;;;;;7.55;5.80;;;12.70;70.60;;;;;;5033475;28;20036;-52
2021/10/04 03:44:03;;;;;;;6.97;5.10;;;12.70;70.60;;;;;;5033802;28;20459;-50
2021/10/04 03:46:29;;;;;;;7.10;4.90;;;12.70;70.70;;;;;;5033132;28;20029;-50
2021/10/04 03:48:55;;;;;;;6.90;6.10;;;12.70;70.50;;;;;;5033680;28;20098;-50
2021/10/04 03:51:20;;;;;;;8.98;5.25;;;12.70;70.50;;;;;;5033412;28;20029;-50
2021/10/04 03:53:46;;;;;;;8.45;5.55;;;12.70;70.60;;;;;;5033770;28;20033;-50
2021/10/04 03:56:12;;;;;;;6.07;4.75;;;12.70;70.60;;;;;;5033258;28;20033;-49
2021/10/04 03:58:37;;;;;;;6.13;4.65;;;12.60;70.30;;;;;;5032959;28;20041;-51
2021/10/04 04:01:04;;;;;;;7.28;5.20;;;12.60;70.20;;;;;;5031262;28;20388;-50
2021/10/04 04:03:29;;;;;;;6.55;5.43;;;12.60;70.40;;;;;;5031930;28;20033;-50
2021/10/04 04:05:55;;;;;;;5.75;4.82;;;12.60;70.20;;;;;;5031832;28;20029;-50
2021/10/04 04:08:21;;;;;;;6.78;5.05;;;12.60;70.20;;;;;;5033145;28;20037;-50
2021/10/04 04:10:47;;;;;;;6.43;5.25;;;12.50;70.10;;;;;;5032532;28;20029;-50
2021/10/04 04:13:13;;;;;;;7.75;4.50;;;12.60;70.10;;;;;;5033274;28;20037;-53
2021/10/04 04:15:39;;;;;;;7.03;4.70;;;12.60;70.10;;;;;;5026508;28;20032;-53
2021/10/04 04:18:05;;;;;;;6.07;5.07;;;12.60;70.10;;;;;;5033440;28;20060;-50
2021/10/04 04:20:30;;;;;;;6.10;4.90;;;12.60;70.20;;;;;;5032920;28;20018;-50
2021/10/04 04:22:56;;;;;;;5.85;4.80;;;12.60;70.10;;;;;;5033143;28;20071;-50
2021/10/04 04:25:22;;;;;;;7.80;5.40;;;12.60;70.20;;;;;;5032930;28;20056;-50
2021/10/04 04:27:48;;;;;;;6.38;5.18;;;12.60;70.30;;;;;;5028848;28;20057;-49
2021/10/04 04:30:14;;;;;;;5.68;4.57;;;12.60;70.10;;;;;;5031480;28;20025;-50
2021/10/04 04:32:41;;;;;;;5.78;5.15;;;12.70;70.10;;;;;;5031945;28;20030;-50
2021/10/04 04:35:07;;;;;;;7.40;5.38;;;12.70;70.10;;;;;;5032985;28;20393;-50
2021/10/04 04:37:36;;;;;;;6.80;5.55;;;12.70;70.00;;;;;;5032460;28;20132;-49
2021/10/04 04:40:04;;;;;;;6.45;5.32;;;12.70;70.00;;;;;;5032566;28;20056;-50
2021/10/04 04:42:29;;;;;;;7.32;6.32;;;12.70;70.10;;;;;;5032465;28;20528;-50
2021/10/04 04:44:55;;;;;;;8.50;6.10;;;12.70;70.00;;;;;;5032768;28;20105;-50
2021/10/04 04:47:21;;;;;;;7.10;5.20;;;12.70;69.80;;;;;;5033712;28;20053;-53
2021/10/04 04:49:46;;;;;;;7.43;4.97;;;12.70;69.90;;;;;;5023486;28;20466;-53
2021/10/04 04:52:12;;;;;;;7.13;5.57;;;12.70;69.80;;;;;;5017196;28;20022;-53
2021/10/04 04:54:38;;;;;;;6.93;4.78;;;12.70;69.70;;;;;;5019185;28;20082;-53
2021/10/04 04:57:03;;;;;;;7.15;5.45;;;12.70;69.60;;;;;;5036919;28;20456;-50
2021/10/04 04:59:29;;;;;;;8.23;5.05;;;12.70;69.70;;;;;;5035181;28;20389;-50
2021/10/04 05:01:55;;;;;;;6.18;5.53;;;12.70;69.70;;;;;;5035067;28;20100;-51
2021/10/04 05:04:22;;;;;;;8.07;5.18;;;12.70;69.60;;;;;;5033800;28;20418;-50
2021/10/04 05:06:48;;;;;;;8.15;5.25;;;12.70;69.60;;;;;;5036313;28;20033;-50
2021/10/04 05:09:13;;;;;;;6.65;5.15;;;12.70;69.70;;;;;;5036081;28;20029;-50
2021/10/04 05:11:39;;;;;;;6.32;5.15;;;12.70;69.70;;;;;;5036094;28;20116;-50
2021/10/04 05:14:05;;;;;;;7.40;5.80;;;12.80;69.60;;;;;;5035665;28;20022;-49
2021/10/04 05:16:31;;;;;;;5.90;5.13;;;12.80;69.50;;;;;;5035927;28;20030;-50
2021/10/04 05:18:56;;;;;;;7.68;5.80;;;12.80;69.40;;;;;;5034986;28;20167;-50
2021/10/04 05:21:22;;;;;;;7.70;5.32;;;12.90;69.30;;;;;;5031235;28;20018;-52
2021/10/04 05:23:48;;;;;;;7.65;5.28;;;12.90;69.30;;;;;;5035088;28;20037;-53
2021/10/04 05:26:14;;;;;;;7.50;5.88;;;13.00;70.10;;;;;;5030976;28;20029;-51
2021/10/04 05:28:39;;;;;;;7.60;5.10;;;13.00;69.20;;;;;;5029783;28;20030;-50
2021/10/04 05:31:05;;;;;;;9.25;5.72;;;13.00;69.00;;;;;;5033082;28;20432;-50
2021/10/04 05:33:31;;;;;;;6.35;5.10;;;13.00;69.10;;;;;;5033543;28;20021;-50
2021/10/04 05:35:56;;;;;;;8.05;5.90;;;13.00;69.00;;;;;;5037753;28;20512;-51
2021/10/04 05:38:23;;;;;;;7.18;5.47;;;12.90;68.50;;;;;;5025813;28;20049;-50
2021/10/04 05:40:48;;;;;;;7.72;5.82;;;12.90;68.30;;;;;;5033500;28;20427;-50
2021/10/04 05:43:14;;;;;;;6.80;5.30;;;12.80;68.20;;;;;;5031188;28;20026;-48
2021/10/04 05:45:41;;;;;;;8.18;5.32;;;12.70;68.30;;;;;;5028290;28;20083;-50
2021/10/04 05:48:07;;;;;;;10.32;5.20;;;12.70;68.50;;;;;;5031362;28;20033;-50
2021/10/04 05:50:33;;;;;;;6.85;5.25;;;12.70;68.70;;;;;;5029057;28;20045;-49
2021/10/04 05:52:58;;;;;;;7.43;5.13;;;12.60;68.90;;;;;;5026669;28;20044;-50
2021/10/04 05:55:24;;;;;;;6.45;5.15;;;12.70;68.90;;;;;;5029865;28;20451;-49
2021/10/04 05:57:50;;;;;;;7.10;5.22;;;12.60;68.90;;;;;;5023345;28;20666;-52
2021/10/04 06:00:17;;;;;;;8.60;6.15;;;12.60;68.80;;;;;;5023934;28;20487;-51
2021/10/04 06:02:43;;;;;;;8.00;5.82;;;12.70;68.90;;;;;;5024077;28;20485;-52
2021/10/04 06:05:10;;;;;;;6.60;4.93;;;12.70;68.90;;;;;;5026167;28;20396;-50
2021/10/04 06:07:36;;;;;;;6.75;5.20;;;12.70;68.80;;;;;;5023708;28;20040;-49
2021/10/04 06:10:04;;;;;;;7.47;4.97;;;12.80;68.70;;;;;;5018901;28;20793;-52
2021/10/04 06:12:30;;;;;;;8.02;5.70;;;12.80;68.80;;;;;;5029783;28;20068;-49
2021/10/04 06:14:58;;;;;;;6.93;5.60;;;12.80;68.80;;;;;;5028287;28;20126;-50
2021/10/04 06:17:25;;;;;;;7.40;5.18;;;12.80;69.20;;;;;;5028207;28;20095;-50
2021/10/04 06:19:50;;;;;;;6.55;5.20;;;12.80;68.60;;;;;;5024127;28;20041;-49
2021/10/04 06:22:23;;;;;;;6.40;5.00;;;12.90;68.70;;;;;;5020581;28;20021;-51
2021/10/04 06:24:49;;;;;;;6.65;5.20;;;12.90;68.60;;;;;;5021478;28;20130;-49
2021/10/04 06:27:15;;;;;;;7.30;5.88;;;12.90;68.70;;;;;;5005744;28;20116;-50
2021/10/04 06:29:42;;;;;;;5.90;5.05;;;12.90;68.50;;;;;;5019798;28;20029;-50
2021/10/04 06:32:08;;;;;;;7.13;5.05;;;12.90;68.70;;;;;;5022681;28;20071;-52
2021/10/04 06:34:34;;;;;;;5.38;4.35;;;12.90;68.60;;;;;;5018726;28;20026;-51
2021/10/04 06:37:00;;;;;;;7.53;5.85;;;13.00;68.50;;;;;;5022438;28;20029;-50
2021/10/04 06:39:26;;;;;;;7.88;5.40;;;13.00;68.70;;;;;;5020409;28;20084;-50
2021/10/04 06:41:52;;;;;;;6.55;5.25;;;13.00;68.80;;;;;;5025282;28;20026;-52
2021/10/04 06:44:18;;;;;;;7.95;5.50;;;13.00;68.70;;;;;;5023529;28;20025;-50
2021/10/04 06:46:44;;;;;;;6.95;5.78;;;13.00;68.60;;;;;;5021993;28;20026;-50
2021/10/04 06:49:10;;;;;;;8.98;5.60;;;13.00;68.50;;;;;;5019112;28;20481;-52
2021/10/04 06:51:36;;;;;;;6.78;5.72;;;13.00;68.60;;;;;;5004101;28;20121;-50
2021/10/04 06:54:02;;;;;;;7.20;5.53;;;13.00;68.60;;;;;;5014997;28;20049;-51
2021/10/04 06:56:27;;;;;;;9.35;5.47;;;13.00;68.40;;;;;;5015299;28;20034;-50
2021/10/04 06:58:53;;;;;;;6.70;5.60;;;13.00;68.50;;;;;;5020587;28;20728;-50
2021/10/04 07:01:19;;;;;;;6.40;5.07;;;13.10;68.90;;;;;;5017508;28;20049;-50
2021/10/04 07:03:44;;;;;;;6.55;5.22;;;13.00;68.70;;;;;;5013957;28;20125;-49
2021/10/04 07:06:10;;;;;;;7.40;5.80;;;13.10;68.70;;;;;;5018210;28;20053;-50
2021/10/04 07:08:36;;;;;;;7.25;5.57;;;13.10;68.80;;;;;;5015928;28;20104;-51
2021/10/04 07:11:02;;;;;;;7.00;5.70;;;13.20;68.80;;;;;;5008914;28;20080;-51
2021/10/04 07:13:28;;;;;;;7.95;5.45;;;13.20;68.80;;;;;;5013057;28;20029;-50
2021/10/04 07:15:53;;;;;;;7.07;5.20;;;13.30;68.80;;;;;;5008636;28;20056;-50
2021/10/04 07:18:19;;;;;;;6.97;5.25;;;13.30;68.80;;;;;;5006512;28;20086;-50
2021/10/04 07:20:45;;;;;;;7.60;5.63;;;13.40;68.70;;;;;;5007213;28;20493;-52
2021/10/04 07:23:12;;;;;;;7.53;5.07;;;13.50;68.70;;;;;;5007775;28;20026;-51
2021/10/04 07:25:37;;;;;;;8.32;5.97;;;13.50;68.40;;;;;;4989873;28;20033;-50
2021/10/04 07:28:04;;;;;;;7.07;5.75;;;13.50;68.40;;;;;;5006337;28;20048;-52
2021/10/04 07:30:30;;;;;;;7.38;5.28;;;13.60;68.50;;;;;;5010976;28;20026;-50
2021/10/04 07:32:56;;;;;;;5.70;4.80;;;13.60;68.30;;;;;;5016507;28;20065;-50
2021/10/04 07:35:23;;;;;;;6.70;5.50;;;13.60;68.20;;;;;;5013425;28;20033;-49
2021/10/04 07:37:49;;;;;;;8.45;5.68;;;13.70;68.40;;;;;;5008837;28;20485;-53
2021/10/04 07:40:16;;;;;;;7.00;5.68;;;13.70;68.40;;;;;;5011904;28;20072;-52
2021/10/04 07:42:42;;;;;;;7.07;5.68;;;13.70;68.40;;;;;;5016339;28;20089;-52
2021/10/04 07:45:10;;;;;;;7.38;6.18;;;13.80;68.40;;;;;;5013828;28;20516;-53
2021/10/04 07:47:36;;;;;;;8.27;5.85;;;13.90;68.30;;;;;;5016713;28;20624;-53
2021/10/04 07:50:04;;;;;;;6.93;5.60;;;13.80;67.90;;;;;;5015147;28;20029;-50
2021/10/04 07:52:29;;;;;;;7.95;5.80;;;13.90;68.10;;;;;;5011201;28;21636;-53
2021/10/04 07:54:55;;;;;;;7.07;5.47;;;13.90;68.10;;;;;;5007189;28;20049;-53
2021/10/04 07:57:21;;;;;;;7.15;5.93;;;13.90;68.00;;;;;;5001514;28;20103;-50
2021/10/04 07:59:47;;;;;;;9.25;6.43;;;14.00;67.90;;;;;;4999067;28;20025;-53
2021/10/04 08:02:12;;;;;;;7.97;6.70;;;13.90;68.40;;;;;;5008548;28;20468;-50
2021/10/04 08:04:39;;;;;;;7.57;5.80;;;14.00;67.70;;;;;;5005131;28;20029;-51
2021/10/04 08:07:05;;;;;;;10.13;6.35;;;13.90;67.70;;;;;;5006301;28;20075;-53
2021/10/04 08:09:31;;;;;;;9.10;6.90;;;13.90;67.70;;;;;;5008702;28;20100;-53
2021/10/04 08:11:57;;;;;;;7.05;6.35;;;14.00;67.70;;;;;;5004091;28;20120;-52
2021/10/04 08:14:23;;;;;;;7.22;5.47;;;14.00;67.70;;;;;;5009712;28;20731;-50
2021/10/04 08:16:49;;;;;;;5.80;5.00;;;14.00;67.60;;;;;;4991597;28;20037;-53
2021/10/04 08:19:15;;;;;;;6.97;5.30;;;14.00;67.50;;;;;;5000723;28;20074;-52
2021/10/04 08:21:40;;;;;;;6.72;5.43;;;14.10;67.40;;;;;;5005585;28;20033;-51
2021/10/04 08:24:06;;;;;;;6.95;5.55;;;14.10;67.20;;;;;;5004250;28;20037;-52
2021/10/04 08:26:32;;;;;;;6.30;5.07;;;14.10;67.20;;;;;;5002470;28;20025;-51
2021/10/04 08:28:58;;;;;;;6.35;5.22;;;14.20;67.20;;;;;;5008107;28;20022;-53
2021/10/04 08:31:29;;;;;;;7.40;6.03;;;14.20;67.00;;;;;;5011534;28;20041;-51
2021/10/04 08:33:59;;;;;;;5.85;5.10;;;14.20;66.80;;;;;;4991965;28;20131;-50
2021/10/04 08:36:25;;;;;;;5.65;4.90;;;14.20;66.70;;;;;;5002229;28;20133;-51
2021/10/04 08:38:51;;;;;;;6.18;5.00;;;14.20;66.50;;;;;;5007159;28;20670;-53
2021/10/04 08:41:20;;;;;;;6.60;5.05;;;14.30;66.30;;;;;;5000944;28;20026;-51
2021/10/04 08:43:52;;;;;;;6.70;4.90;;;14.20;66.00;;;;;;5009675;28;20034;-52
2021/10/04 08:46:19;;;;;;;6.15;4.43;;;14.30;66.30;;;;;;5011273;28;20025;-52
2021/10/04 08:48:46;;;;;;;5.88;4.47;;;14.20;65.70;;;;;;5005673;28;20429;-52
2021/10/04 08:51:12;;;;;;;6.65;4.65;;;14.20;65.80;;;;;;5005102;28;20450;-53
2021/10/04 08:53:39;;;;;;;6.93;4.63;;;14.30;66.00;;;;;;5008126;28;20141;-52
2021/10/04 08:56:05;;;;;;;6.63;5.07;;;14.30;66.00;;;;;;5008202;28;20037;-50
2021/10/04 08:58:32;;;;;;;5.45;4.57;;;14.30;66.10;;;;;;5006591;28;20037;-53
2021/10/04 09:01:04;;;;;;;6.63;4.90;;;14.30;66.80;;;;;;5007883;28;20127;-52
2021/10/04 09:03:44;;;;;;;6.53;4.60;;;14.40;65.90;;;;;;5011209;28;20036;-50
2021/10/04 09:06:42;;;;;;;6.82;5.07;;;14.40;66.10;;;;;;5014462;28;20116;-52
2021/10/04 09:09:11;;;;;;;5.75;4.60;;;14.40;65.70;;;;;;5008479;28;20493;-52
2021/10/04 09:11:48;;;;;;;5.38;4.47;;;14.40;65.60;;;;;;5003450;28;20029;-50
2021/10/04 09:14:29;;;;;;;5.32;4.32;;;14.40;65.50;;;;;;5004173;28;20034;-52
2021/10/04 09:16:58;;;;;;;7.15;4.20;;;14.40;65.50;;;;;;5005657;28;20037;-50
2021/10/04 09:19:38;;;;;;;6.00;4.68;;;14.40;65.40;;;;;;5007741;28;20040;-51
2021/10/04 09:22:20;;;;;;;6.22;4.60;;;14.40;65.50;;;;;;5003796;28;20069;-52
2021/10/04 09:25:01;;;;;;;6.85;4.88;;;14.50;65.50;;;;;;5008729;28;20050;-53
2021/10/04 09:27:27;;;;;;;5.38;4.28;;;14.50;65.30;;;;;;5003782;28;20029;-50
2021/10/04 09:29:53;;;;;;;5.00;4.32;;;14.50;65.30;;;;;;5006719;28;20060;-50
2021/10/04 09:32:27;;;;;;;6.00;4.22;;;14.60;65.20;;;;;;5012197;28;20033;-50
2021/10/04 09:35:09;;;;;;;5.05;3.90;;;14.60;64.90;;;;;;5011291;28;20057;-52
2021/10/04 09:37:35;;;;;;;4.75;4.15;;;14.70;65.00;;;;;;5012428;28;20026;-53
2021/10/04 09:40:03;;;;;;;4.88;3.90;;;14.70;64.70;;;;;;5010681;28;20108;-50
2021/10/04 09:42:36;;;;;;;5.60;4.28;;;14.80;64.70;;;;;;5012105;28;20090;-50
2021/10/04 09:45:05;;;;;;;6.90;4.65;;;14.80;63.60;;;;;;5011470;28;20026;-51
2021/10/04 09:47:38;;;;;;;6.20;4.50;;;14.80;63.10;;;;;;5015413;28;20121;-50
2021/10/04 09:50:09;;;;;;;6.63;4.45;;;14.80;63.00;;;;;;5012294;28;20025;-52
2021/10/04 09:52:45;;;;;;;6.00;4.40;;;14.80;62.20;;;;;;5013906;28;20041;-51
2021/10/04 09:55:34;;;;;;;6.43;4.18;;;14.80;62.40;;;;;;5010707;28;20175;-52
2021/10/04 09:58:21;;;;;;;5.55;4.43;;;14.70;62.70;;;;;;5011974;28;20057;-50
2021/10/04 10:00:58;;;;;;;5.68;4.18;;;14.70;62.70;;;;;;5009056;28;20056;-51
2021/10/04 10:03:27;;;;;;;4.97;4.10;;;14.70;61.70;;;;;;5015086;28;20030;-52
2021/10/04 10:05:58;;;;;;;4.25;3.65;;;14.70;61.60;;;;;;5018184;28;20029;-53
2021/10/04 10:08:26;;;;;;;6.70;4.32;;;14.70;61.60;;;;;;5022840;28;20117;-50
2021/10/04 10:11:00;;;;;;;5.05;3.92;;;14.70;61.70;;;;;;5017341;28;20038;-52
2021/10/04 10:13:28;;;;;;;5.15;3.63;;;14.60;62.30;;;;;;5026278;28;20060;-51
2021/10/04 10:16:15;;;;;;;6.32;4.35;;;14.60;61.70;;;;;;5015944;28;20085;-53
2021/10/04 10:18:59;;;;;;;6.72;4.40;;;14.60;61.70;;;;;;5017353;28;20045;-52
2021/10/04 10:21:31;;;;;;;5.50;4.30;;;14.60;61.70;;;;;;5003601;28;20376;-50
2021/10/04 10:24:00;;;;;;;6.13;4.03;;;14.60;61.80;;;;;;5018736;28;20120;-50
2021/10/04 10:26:26;;;;;;;5.68;4.10;;;14.50;61.70;;;;;;5013051;28;20499;-50
2021/10/04 10:29:20;;;;;;;5.28;3.22;;;14.50;61.60;;;;;;5013274;28;20309;-53
2021/10/04 10:31:52;;;;;;;4.80;3.97;;;14.50;62.20;;;;;;5016603;28;20029;-51
2021/10/04 10:34:30;;;;;;;4.55;3.78;;;14.50;62.70;;;;;;5015758;28;20060;-50
2021/10/04 10:37:18;;;;;;;4.45;3.72;;;14.50;62.10;;;;;;5014529;28;20041;-52
2021/10/04 10:40:11;;;;;;;4.40;3.85;;;14.60;61.60;;;;;;5019893;28;20112;-50
2021/10/04 10:42:41;;;;;;;4.60;3.50;;;14.60;60.70;;;;;;5018746;28;20176;-50
2021/10/04 10:45:08;;;;;;;5.28;3.90;;;14.60;60.60;;;;;;5014603;28;20041;-53
2021/10/04 10:47:37;;;;;;;4.78;3.60;;;14.60;60.70;;;;;;5014896;28;20037;-50
2021/10/04 10:50:28;;;;;;;4.97;3.67;;;14.60;60.50;;;;;;5015258;28;20036;-50
2021/10/04 10:52:57;;;;;;;5.13;3.90;;;14.70;60.00;;;;;;5018451;28;20073;-49
2021/10/04 10:55:22;;;;;;;5.70;4.13;;;14.60;59.80;;;;;;5014265;28;20056;-53
2021/10/04 10:58:02;;;;;;;6.53;3.78;;;14.70;59.50;;;;;;5014388;28;20642;-49
2021/10/04 11:00:35;;;;;;;5.93;3.97;;;14.70;59.20;;;;;;5012595;28;20037;-50
2021/10/04 11:03:06;;;;;;;4.70;3.75;;;14.70;59.00;;;;;;5007746;28;20143;-51
2021/10/04 11:05:38;;;;;;;4.50;3.53;;;14.70;58.90;;;;;;5004091;28;20483;-50
2021/10/04 11:08:04;;;;;;;4.82;3.25;;;14.70;58.40;;;;;;5007102;28;20125;-49
2021/10/04 11:10:30;;;;;;;4.35;3.72;;;14.70;57.90;;;;;;5007502;28;20034;-50
2021/10/04 11:13:09;;;;;;;5.10;4.10;;;14.70;57.70;;;;;;5004733;28;20030;-51
2021/10/04 11:15:41;;;;;;;4.70;3.75;;;14.80;57.10;;;;;;5002046;28;20385;-51
2021/10/04 11:18:09;;;;;;;5.50;3.60;;;14.80;57.30;;;;;;5006446;28;20040;-53
2021/10/04 11:20:36;;;;;;;3.85;3.08;;;14.80;57.00;;;;;;5006092;28;20079;-52
2021/10/04 11:23:05;;;;;;;5.18;3.17;;;14.80;56.90;;;;;;5012212;28;20519;-51
2021/10/04 11:25:41;;;;;;;5.10;3.30;;;14.80;56.50;;;;;;5012350;28;20419;-51
2021/10/04 11:28:07;;;;;;;4.20;3.80;;;14.80;56.10;;;;;;5005397;28;20151;-50
2021/10/04 11:31:07;;;;;;;3.33;3.03;;;14.90;56.10;;;;;;4995840;28;20030;-52
2021/10/04 11:33:40;;;;;;;4.00;3.08;;;14.90;55.50;;;;;;4963763;28;20497;-50
2021/10/04 11:36:13;;;;;;;3.97;3.03;;;14.90;55.80;;;;;;4998996;28;20041;-52
2021/10/04 11:39:02;;;;;;;3.63;2.83;;;14.90;55.90;;;;;;5000373;28;20049;-50
2021/10/04 11:41:32;;;;;;;3.55;3.00;;;14.90;55.60;;;;;;5003044;28;20068;-51
2021/10/04 11:44:04;;;;;;;4.88;3.35;;;15.00;55.50;;;;;;4983494;28;20049;-53
2021/10/04 11:46:36;;;;;;;3.72;3.30;;;15.00;55.50;;;;;;4994390;28;20041;-53
2021/10/04 11:49:02;;;;;;;3.80;3.20;;;15.00;55.20;;;;;;5003720;28;20279;-50
2021/10/04 11:51:29;;;;;;;4.05;3.15;;;15.00;55.10;;;;;;5007295;28;20126;-50
2021/10/04 11:53:55;;;;;;;3.63;3.22;;;15.00;54.90;;;;;;4994492;28;20520;-50
2021/10/04 11:56:22;;;;;;;4.07;3.08;;;15.00;54.80;;;;;;5002753;28;20068;-50
2021/10/04 11:58:54;;;;;;;3.90;3.28;;;15.00;55.30;;;;;;4997111;28;20029;-50
2021/10/04 12:01:39;;;;;;;4.47;3.35;;;15.10;54.50;;;;;;5006066;28;20022;-50
2021/10/04 12:04:07;;;;;;;4.88;3.00;;;15.10;54.40;;;;;;5003475;28;20029;-50
2021/10/04 12:06:34;;;;;;;3.33;3.03;;;15.10;54.70;;;;;;4991967;28;20578;-49
2021/10/04 12:09:00;;;;;;;4.40;2.97;;;15.10;54.70;;;;;;5003829;28;20018;-49
2021/10/04 12:11:27;;;;;;;3.55;2.83;;;15.10;54.30;;;;;;5001656;28;20039;-49
2021/10/04 12:13:54;;;;;;;3.60;3.00;;;15.10;54.10;;;;;;5006823;28;20038;-50
2021/10/04 12:16:22;;;;;;;3.88;3.15;;;15.10;54.30;;;;;;5005370;28;20044;-51
2021/10/04 12:18:53;;;;;;;3.85;3.05;;;15.10;53.90;;;;;;5010834;28;20046;-49
2021/10/04 12:21:40;;;;;;;3.95;3.30;;;15.10;54.10;;;;;;5001277;28;20034;-50
2021/10/04 12:24:11;;;;;;;4.15;2.83;;;15.10;54.20;;;;;;5006673;28;20040;-50
2021/10/04 12:26:53;;;;;;;3.08;2.78;;;15.10;53.90;;;;;;5005703;28;20041;-53
2021/10/04 12:29:49;;;;;;;8.38;3.15;;;15.10;53.60;;;;;;5000833;28;20037;-51
2021/10/04 12:32:14;;;;;;;4.40;3.05;;;15.20;52.90;;;;;;4979035;28;20045;-53
2021/10/04 12:34:58;;;;;;;3.22;2.88;;;15.10;53.40;;;;;;5005568;28;20037;-50
2021/10/04 12:37:26;;;;;;;3.13;2.72;;;15.20;53.40;;;;;;5007252;28;20034;-52
2021/10/04 12:39:52;;;;;;;4.05;3.00;;;15.10;53.40;;;;;;5003369;28;20128;-51
2021/10/04 12:42:17;;;;;;;3.78;3.15;;;15.20;53.30;;;;;;5005661;28;20018;-53
2021/10/04 12:44:44;;;;;;;3.83;3.10;;;15.20;53.50;;;;;;5003958;28;20025;-52
2021/10/04 12:47:12;;;;;;;3.40;2.88;;;15.20;53.10;;;;;;5001369;28;20034;-51
2021/10/04 12:49:39;;;;;;;3.53;2.90;;;15.30;53.00;;;;;;5011036;28;20075;-53
2021/10/04 12:52:18;;;;;;;3.83;3.10;;;15.30;53.10;;;;;;5008096;28;20041;-52
2021/10/04 12:54:49;;;;;;;4.35;3.25;;;15.30;52.80;;;;;;4998364;28;20199;-53